• Join FlightAware (Why Join?)
  • Login
  • US Flag 
08:26AM EDT


 

Airport Tracker/Info


-or-


 

Live Flight TrackerFlight Track Log ✈ ASQ4086 ✈ 03-May-2013 ✈ KIAH - KDAL

Flight Track Log - Related Links

Times and Time Zones

All times are in EDT time to prevent confusion due to time zone crossing. See the ASQ4086 flight status page for this flight to view local times or setup timezone preferences in your user account.

Time Position Orientation Groundspeed Altitude Reporting Facility
EDT Latitude Longitude Course Direction KTS MPH feet Rate Location/Type
04:54PM 29.9775 -95.3319 333° Northwest 167 192 700  Level Houston Center
04:55PM 30.0100 -95.3425 344° North 188 216 2,500 1,500 Climbing Houston Center
04:56PM 30.0450 -95.3383 North 228 262 2,900 480 Climbing Houston Center
04:56PM 30.0700 -95.3328 11° North 244 281 3,000  Climbing Houston Center
04:57PM 30.1111 -95.3283 North 236 272 2,900  Descending Houston Center
04:57PM 30.1467 -95.3236 North 244 281 3,000  Climbing Houston Center
04:58PM 30.1911 -95.4477 333° Northwest  Level FlightAware Approximate
04:58PM 30.1786 -95.3244 359° North 240 276 2,900  Level Houston Center
04:58PM 30.2114 -95.3400 338° Northwest 239 275 3,000  Climbing Houston Center
04:59PM 30.2424 -95.4780 333° Northwest  Level FlightAware Approximate
04:59PM 30.2361 -95.3656 318° Northwest 242 278 2,900  Level Houston Center
04:59PM 30.2664 -95.3914 324° Northwest 250 288 3,400 1,320 Climbing Houston Center
05:00PM 30.2937 -95.5082 333° Northwest  Level FlightAware Approximate
05:00PM 30.2994 -95.4258 318° Northwest 246 283 4,300  Level Houston Center
05:00PM 30.3217 -95.4450 323° Northwest 248 285 4,900 1,800 Climbing Houston Center
05:01PM 30.3544 -95.4775 319° Northwest 251 289 6,200 1,920 Climbing Houston Center
05:01PM 30.3769 -95.4989 321° Northwest 248 285 6,900 1,500 Climbing Houston Center
05:02PM 30.4072 -95.5283 320° Northwest 249 287 7,800 540 Climbing Houston Center
05:03PM 30.4647 -95.5722 327° Northwest 248 285 7,900  Climbing Houston Center
05:04PM 30.5247 -95.6078 333° Northwest 244 281 7,900  Level Houston Center
05:05PM 30.5861 -95.6447 333° Northwest 247 284 7,900  Level Houston Center
05:06PM 30.6589 -95.6889 332° Northwest 247 284 7,900  Level Houston Center
05:07PM 30.7192 -95.7239 333° Northwest 246 283 8,000  Climbing Houston Center
05:08PM 30.7797 -95.7606 333° Northwest 244 281 7,900 -60 Descending Houston Center
05:09PM 30.8397 -95.7964 333° Northwest 243 280 7,900  Level Houston Center
05:10PM 30.8997 -95.8325 333° Northwest 241 277 8,000  Climbing Houston Center
05:11PM 30.9811 -95.8303 North 251 289 7,900 -60 Descending Houston Center
05:12PM 31.0478 -95.8508 345° North 249 287 7,900  Level Houston Center
05:13PM 31.1139 -95.8722 345° North 245 282 7,900  Level Houston Center
05:14PM 31.1781 -95.8922 345° North 241 277 7,900  Level Houston Center
05:15PM 31.2419 -95.9142 344° North 238 274 8,000  Climbing Fort Worth Center
05:16PM 31.3069 -95.9350 345° North 238 274 8,000  Level Fort Worth Center
05:17PM 31.3719 -95.9558 345° North 244 281 8,000  Level Fort Worth Center
05:18PM 31.4369 -95.9769 345° North 238 274 8,000  Level Fort Worth Center
05:19PM 31.5081 -96.0000 345° North 238 274 8,000  Level Fort Worth Center
05:20PM 31.5772 -96.0211 345° North 247 284 8,000  Level Fort Worth Center
05:21PM 31.6464 -96.0444 344° North 248 285 8,000  Level Fort Worth Center
05:22PM 31.7114 -96.0653 345° North 235 270 8,000  Level Fort Worth Center
05:23PM 31.7742 -96.0817 347° North 248 285 8,000  Level Fort Worth Center
05:24PM 31.8497 -96.1075 344° North 260 299 8,000  Level Fort Worth Center
05:25PM 31.9167 -96.1308 344° North 255 293 8,000  Level Fort Worth Center
05:26PM 31.9858 -96.1519 345° North 255 293 8,000  Level Fort Worth Center
05:27PM 32.0528 -96.1731 345° North 248 285 8,000  Level Fort Worth Center
05:28PM 32.1239 -96.1992 343° North 248 285 8,000 -60 Level Fort Worth Center
05:29PM 32.1869 -96.2203 344° North 248 285 7,900 -300 Descending Fort Worth Center
05:30PM 32.2561 -96.2589 335° Northwest 248 285 7,400 -480 Descending Fort Worth Center
05:31PM 32.3169 -96.2972 332° Northwest 254 292 7,000 -240 Descending Fort Worth Center
05:32PM 32.3800 -96.3358 333° Northwest 254 292 7,000  Level Fort Worth Center
05:33PM 32.4389 -96.3819 327° Northwest 254 292 7,000 -180 Level Fort Worth Center
05:34PM 32.4914 -96.4406 317° Northwest 254 292 6,700 -420 Descending Fort Worth Center
05:35PM 32.5400 -96.4992 315° West 249 287 6,200 -480 Descending Fort Worth Center
05:36PM 32.5925 -96.5553 318° Northwest 244 281 5,800 -480 Descending Fort Worth Center
05:37PM 32.6367 -96.6042 317° Northwest 249 287 5,300 -600 Descending Fort Worth Center
05:38PM 32.6914 -96.6656 317° Northwest 249 287 4,700 -1,020 Descending Fort Worth Center
05:39PM 32.7333 -96.7167 314° West 237 273 3,500 -1,500 Descending Dallas / Fort Worth TRACON